createdAt,value
2017-05-09T00:00:05.931Z,63.79
2017-05-09T00:00:46.557Z,63.7
2017-05-09T00:01:27.148Z,63.6
2017-05-09T00:02:07.725Z,63.89
2017-05-09T00:02:48.326Z,63.79
2017-05-09T00:03:28.918Z,63.79
2017-05-09T00:04:09.512Z,64.21
2017-05-09T00:04:50.098Z,63.83
2017-05-09T00:05:30.695Z,63.42
2017-05-09T00:06:11.331Z,63.42
2017-05-09T00:06:51.927Z,63.13
2017-05-09T00:07:32.528Z,63.13
2017-05-09T00:08:13.122Z,63.23
2017-05-09T00:08:53.743Z,63.79
2017-05-09T00:09:34.358Z,63.79
2017-05-09T00:10:14.985Z,63.7
2017-05-09T00:10:55.593Z,63.7
2017-05-09T00:11:36.186Z,63.7
2017-05-09T00:12:16.822Z,63.7
2017-05-09T00:12:57.428Z,63.51
2017-05-09T00:13:38.032Z,63.51
2017-05-09T00:14:18.643Z,63.32
2017-05-09T00:14:59.256Z,63.7
2017-05-09T00:15:39.865Z,63.6
2017-05-09T00:16:20.475Z,64.08
2017-05-09T00:17:01.116Z,63.7
2017-05-09T00:17:41.707Z,63.98
2017-05-09T00:18:22.312Z,64.27
2017-05-09T00:19:02.920Z,64.08
2017-05-09T00:19:43.512Z,64.17
2017-05-09T00:20:24.143Z,64.37
2017-05-09T00:21:04.776Z,64.27
2017-05-09T00:21:45.410Z,64.46
2017-05-09T00:22:26.027Z,64.94
2017-05-09T00:23:06.635Z,64.84
2017-05-09T00:23:47.244Z,64.56
2017-05-09T00:24:27.840Z,64.17
2017-05-09T00:25:08.432Z,64.46
2017-05-09T00:25:49.047Z,63.79
2017-05-09T00:26:29.665Z,64.08
2017-05-09T00:27:10.269Z,64.17
2017-05-09T00:27:50.893Z,64.84
2017-05-09T00:28:31.522Z,65.22
2017-05-09T00:29:12.107Z,64.75
2017-05-09T00:29:52.752Z,64.84
2017-05-09T00:30:33.399Z,64.84
2017-05-09T00:31:13.990Z,65.41
2017-05-09T00:31:54.626Z,65.31
2017-05-09T00:32:35.224Z,65.41
2017-05-09T00:33:15.848Z,65.5
2017-05-09T00:33:56.463Z,65.6
2017-05-09T00:34:37.054Z,65.41
2017-05-09T00:35:17.651Z,65.03
2017-05-09T00:35:58.261Z,65.12
2017-05-09T00:36:38.870Z,65.03
2017-05-09T00:37:19.461Z,65.31
2017-05-09T00:38:00.149Z,65.31
2017-05-09T00:38:40.748Z,65.03
2017-05-09T00:39:21.349Z,65.5
2017-05-09T00:40:01.976Z,65.31
2017-05-09T00:40:42.613Z,65.6
2017-05-09T00:41:23.203Z,65.22
2017-05-09T00:42:03.863Z,65.5
2017-05-09T00:42:44.497Z,65.69
2017-05-09T00:43:25.131Z,65.98
2017-05-09T00:44:05.755Z,65.69
2017-05-09T00:44:46.402Z,65.98
2017-05-09T00:45:27.088Z,65.79
2017-05-09T00:46:07.708Z,65.69
2017-05-09T00:46:51.128Z,65.69
2017-05-09T00:47:31.734Z,65.41
2017-05-09T00:48:12.364Z,65.5
2017-05-09T00:48:52.964Z,65.5
2017-05-09T00:49:33.568Z,65.69
2017-05-09T00:50:14.175Z,65.79
2017-05-09T00:50:54.824Z,65.98
2017-05-09T00:51:35.489Z,65.41
2017-05-09T00:52:16.108Z,65.5
2017-05-09T00:52:56.715Z,65.69
2017-05-09T00:53:37.337Z,65.79
2017-05-09T00:54:17.957Z,65.88
2017-05-09T00:54:58.612Z,65.88
2017-05-09T00:55:39.221Z,65.69
2017-05-09T00:56:19.817Z,65.69
2017-05-09T00:57:00.416Z,65.79
2017-05-09T00:57:41.019Z,65.98
2017-05-09T00:58:21.632Z,66.08
2017-05-09T00:59:02.265Z,66.17
2017-05-09T00:59:42.883Z,66.17
2017-05-09T01:00:23.542Z,66.17
2017-05-09T01:01:04.172Z,66.17
2017-05-09T01:01:44.774Z,66.17
2017-05-09T01:02:25.418Z,66.08
2017-05-09T01:03:06.133Z,66.46
2017-05-09T01:03:46.764Z,66.55
2017-05-09T01:04:27.412Z,66.08
2017-05-09T01:05:08.050Z,66.17
2017-05-09T01:05:48.648Z,66.17
2017-05-09T01:06:29.257Z,66.17
2017-05-09T01:07:09.910Z,66.64
2017-05-09T01:07:50.573Z,66.46
2017-05-09T01:08:31.120Z,66.46
2017-05-09T01:09:11.699Z,66.74
2017-05-09T01:09:52.311Z,66.64
2017-05-09T01:10:32.968Z,66.55
2017-05-09T01:11:13.599Z,66.17
2017-05-09T01:11:54.200Z,66.36
2017-05-09T01:12:34.821Z,66.08
2017-05-09T01:13:15.440Z,66.08
2017-05-09T01:13:56.032Z,66.64
2017-05-09T01:14:36.621Z,66.64
2017-05-09T01:15:17.261Z,66.46
2017-05-09T01:15:57.875Z,66.74
2017-05-09T01:16:38.499Z,67.02
2017-05-09T01:17:19.065Z,67.12
2017-05-09T01:17:59.707Z,67.12
2017-05-09T01:18:40.303Z,67.21
2017-05-09T01:19:20.889Z,67.31
2017-05-09T01:20:01.470Z,67.02
2017-05-09T01:20:42.053Z,67.02
2017-05-09T01:21:22.654Z,66.93
2017-05-09T01:22:03.255Z,66.74
2017-05-09T01:22:43.856Z,66.46
2017-05-09T01:23:24.461Z,66.64
2017-05-09T01:24:05.042Z,66.74
2017-05-09T01:24:45.630Z,66.74
2017-05-09T01:25:26.230Z,66.74
2017-05-09T01:26:06.872Z,67.02
2017-05-09T01:26:47.472Z,66.36
2017-05-09T01:27:28.071Z,66.08
2017-05-09T01:28:08.670Z,66.17
2017-05-09T01:28:49.279Z,65.98
2017-05-09T01:29:29.853Z,66.46
2017-05-09T01:30:10.471Z,66.55
2017-05-09T01:30:51.105Z,67.02
2017-05-09T01:31:31.732Z,66.83
2017-05-09T01:32:12.400Z,66.27
2017-05-09T01:32:52.998Z,66.83
2017-05-09T01:33:33.616Z,66.93
2017-05-09T01:34:14.226Z,66.74
2017-05-09T01:34:54.921Z,66.93
2017-05-09T01:35:35.571Z,66.83
2017-05-09T01:36:16.197Z,67.31
2017-05-09T01:36:56.786Z,67.12
2017-05-09T01:37:37.378Z,67.21
2017-05-09T01:38:17.992Z,67.12
2017-05-09T01:38:58.627Z,67.5
2017-05-09T01:39:39.214Z,67.4
2017-05-09T01:40:19.841Z,67.02
2017-05-09T01:41:00.441Z,66.93
2017-05-09T01:41:41.084Z,67.12
2017-05-09T01:42:21.733Z,66.64
2017-05-09T01:43:02.381Z,66.17
2017-05-09T01:43:43.003Z,65.88
2017-05-09T01:44:23.628Z,65.98
2017-05-09T01:45:04.237Z,66.17
2017-05-09T01:45:44.832Z,66.08
2017-05-09T01:46:25.473Z,66.17
2017-05-09T01:47:06.066Z,66.55
2017-05-09T01:47:46.668Z,66.46
2017-05-09T01:48:27.283Z,66.93
2017-05-09T01:49:07.880Z,66.83
2017-05-09T01:49:48.474Z,66.83
2017-05-09T01:50:29.119Z,66.64
2017-05-09T01:51:09.729Z,66.64
2017-05-09T01:51:50.375Z,66.55
2017-05-09T01:52:31.039Z,66.55
2017-05-09T01:53:11.657Z,66.46
2017-05-09T01:53:52.235Z,66.36
2017-05-09T01:54:32.843Z,66.55
2017-05-09T01:55:13.449Z,66.46
2017-05-09T01:55:54.136Z,66.74
2017-05-09T01:56:34.741Z,66.83
2017-05-09T01:57:15.339Z,66.55
2017-05-09T01:57:55.954Z,66.83
2017-05-09T01:58:36.551Z,66.74
2017-05-09T01:59:17.190Z,67.31
2017-05-09T01:59:57.768Z,67.12
2017-05-09T02:00:38.370Z,67.02
2017-05-09T02:01:18.967Z,67.21
2017-05-09T02:01:59.563Z,67.02
2017-05-09T02:02:40.171Z,66.93
2017-05-09T02:03:20.779Z,67.31
2017-05-09T02:04:01.411Z,67.59
2017-05-09T02:04:42.004Z,67.5
2017-05-09T02:05:22.622Z,67.79
2017-05-09T02:06:03.247Z,67.21
2017-05-09T02:06:43.882Z,67.59
2017-05-09T02:07:24.483Z,67.59
2017-05-09T02:08:05.072Z,67.5
2017-05-09T02:08:45.695Z,67.02
2017-05-09T02:09:26.353Z,67.12
2017-05-09T02:10:06.969Z,67.12
2017-05-09T02:10:47.661Z,67.12
2017-05-09T02:11:28.270Z,66.93
2017-05-09T02:12:08.860Z,67.21
2017-05-09T02:12:49.446Z,66.83
2017-05-09T02:13:30.068Z,66.93
2017-05-09T02:14:10.694Z,67.69
2017-05-09T02:14:51.314Z,67.5
2017-05-09T02:15:31.915Z,67.59
2017-05-09T02:16:12.517Z,67.97
2017-05-09T02:16:53.133Z,67.88
2017-05-09T02:17:33.727Z,67.69
2017-05-09T02:18:14.329Z,67.69
2017-05-09T02:18:54.942Z,67.69
2017-05-09T02:19:35.535Z,67.59
2017-05-09T02:20:16.124Z,67.5
2017-05-09T02:20:56.752Z,68.07
2017-05-09T02:21:37.358Z,67.59
2017-05-09T02:22:17.969Z,67.97
2017-05-09T02:22:58.606Z,68.16
2017-05-09T02:23:39.208Z,67.97
2017-05-09T02:24:19.816Z,67.88
2017-05-09T02:25:00.449Z,68.35
2017-05-09T02:25:41.080Z,68.35
2017-05-09T02:26:21.673Z,67.97
2017-05-09T02:27:02.283Z,67.97
2017-05-09T02:27:42.948Z,68.26
2017-05-09T02:28:23.564Z,68.16
2017-05-09T02:29:04.157Z,68.44
2017-05-09T02:29:44.754Z,68.54
2017-05-09T02:30:25.386Z,68.64
2017-05-09T02:31:06.008Z,68.54
2017-05-09T02:31:46.607Z,68.54
2017-05-09T02:32:27.210Z,68.54
2017-05-09T02:33:07.830Z,68.54
2017-05-09T02:33:48.442Z,68.26
2017-05-09T02:34:29.074Z,68.35
2017-05-09T02:35:09.669Z,68.54
2017-05-09T02:35:50.273Z,68.73
2017-05-09T02:36:30.903Z,68.73
2017-05-09T02:37:11.529Z,68.64
2017-05-09T02:37:52.137Z,68.44
2017-05-09T02:38:32.792Z,67.97
2017-05-09T02:39:13.405Z,68.26
2017-05-09T02:39:54.012Z,67.59
2017-05-09T02:40:34.617Z,67.59
2017-05-09T02:41:15.222Z,68.35
2017-05-09T02:41:55.804Z,67.88
2017-05-09T02:42:36.404Z,68.44
2017-05-09T02:43:17.032Z,68.44
2017-05-09T02:43:57.626Z,68.73
2017-05-09T02:44:38.218Z,68.35
2017-05-09T02:45:18.850Z,68.16
2017-05-09T02:45:59.465Z,68.44
2017-05-09T02:46:40.075Z,67.97
2017-05-09T02:47:20.661Z,68.73
2017-05-09T02:48:01.260Z,68.64
2017-05-09T02:48:41.853Z,68.26
2017-05-09T02:49:22.448Z,67.97
2017-05-09T02:50:03.077Z,68.07
2017-05-09T02:50:43.725Z,68.54
2017-05-09T02:51:24.309Z,68.16
2017-05-09T02:52:04.936Z,68.07
2017-05-09T02:52:45.561Z,67.97
2017-05-09T02:53:26.166Z,67.79
2017-05-09T02:54:06.801Z,68.26
2017-05-09T02:54:47.398Z,68.16
2017-05-09T02:55:28.040Z,68.07
2017-05-09T02:56:08.624Z,68.26
2017-05-09T02:56:49.234Z,68.35
2017-05-09T02:57:29.832Z,67.79
2017-05-09T02:58:10.425Z,67.79
2017-05-09T02:58:51.102Z,67.69
2017-05-09T02:59:31.698Z,67.97
2017-05-09T03:00:12.312Z,67.88
2017-05-09T03:00:52.928Z,67.88
2017-05-09T03:01:33.541Z,68.16
2017-05-09T03:02:14.154Z,68.26
2017-05-09T03:02:54.762Z,68.26
2017-05-09T03:03:35.378Z,68.54
2017-05-09T03:04:16.090Z,68.35
2017-05-09T03:04:56.607Z,68.54
2017-05-09T03:05:37.242Z,68.35
2017-05-09T03:06:17.824Z,68.16
2017-05-09T03:06:58.431Z,68.16
2017-05-09T03:07:39.060Z,68.44
2017-05-09T03:08:19.682Z,68.07
2017-05-09T03:09:00.322Z,67.97
2017-05-09T03:09:40.981Z,67.97
2017-05-09T03:10:21.550Z,67.97
2017-05-09T03:11:02.157Z,68.16
2017-05-09T03:11:42.798Z,68.07
2017-05-09T03:12:23.432Z,67.97
2017-05-09T03:13:04.035Z,68.54
2017-05-09T03:13:44.676Z,68.44
2017-05-09T03:14:25.242Z,68.07
2017-05-09T03:15:05.884Z,68.54
2017-05-09T03:15:46.477Z,68.64
2017-05-09T03:16:27.068Z,68.07
2017-05-09T03:17:07.653Z,68.26
2017-05-09T03:17:48.270Z,68.26
2017-05-09T03:18:28.858Z,68.07
2017-05-09T03:19:09.467Z,68.73
2017-05-09T03:19:50.093Z,68.35
2017-05-09T03:20:30.725Z,68.35
2017-05-09T03:21:11.387Z,67.97
2017-05-09T03:21:52.026Z,68.26
2017-05-09T03:22:32.604Z,67.88
2017-05-09T03:23:13.208Z,68.16
2017-05-09T03:23:53.802Z,68.26
2017-05-09T03:24:34.403Z,68.64
2017-05-09T03:25:15.006Z,68.07
2017-05-09T03:25:55.627Z,68.73
2017-05-09T03:26:36.240Z,68.44
2017-05-09T03:27:16.910Z,68.64
2017-05-09T03:27:57.568Z,68.64
2017-05-09T03:28:38.170Z,68.64
2017-05-09T03:29:18.785Z,68.54
2017-05-09T03:29:59.414Z,68.64
2017-05-09T03:30:40.030Z,68.54
2017-05-09T03:31:20.639Z,68.54
2017-05-09T03:32:01.229Z,68.54
2017-05-09T03:32:41.850Z,68.64
2017-05-09T03:33:22.445Z,68.64
2017-05-09T03:34:03.043Z,68.44
2017-05-09T03:34:43.649Z,68.54
2017-05-09T03:35:24.275Z,68.35
2017-05-09T03:36:04.897Z,68.35
2017-05-09T03:36:45.498Z,68.54
2017-05-09T03:37:26.091Z,68.92
2017-05-09T03:38:06.753Z,68.54
2017-05-09T03:38:47.368Z,68.92
2017-05-09T03:39:27.972Z,68.64
2017-05-09T03:40:08.564Z,68.73
2017-05-09T03:40:49.170Z,68.64
2017-05-09T03:41:29.782Z,68.73
2017-05-09T03:42:10.376Z,68.54
2017-05-09T03:42:50.997Z,68.54
2017-05-09T03:43:31.630Z,68.73
2017-05-09T03:44:12.250Z,68.64
2017-05-09T03:46:25.063Z,68.64
2017-05-09T03:47:05.631Z,68.92
2017-05-09T03:47:46.251Z,69.11
2017-05-09T03:48:26.821Z,69.02
2017-05-09T03:49:07.387Z,68.92
2017-05-09T03:49:48.001Z,69.21
2017-05-09T03:50:28.628Z,69.21
2017-05-09T03:51:09.205Z,69.02
2017-05-09T03:51:49.808Z,69.15
2017-05-09T03:52:30.386Z,69.53
2017-05-09T03:53:10.975Z,69.24
2017-05-09T03:53:51.560Z,69.34
2017-05-09T03:54:32.300Z,69.24
2017-05-09T03:55:13.115Z,69.24
2017-05-09T03:55:53.698Z,69.15
2017-05-09T03:56:34.288Z,68.86
2017-05-09T03:57:14.860Z,69.34
2017-05-09T03:57:55.427Z,69.05
2017-05-09T03:58:36.021Z,68.86
2017-05-09T03:59:16.664Z,69.05
2017-05-09T03:59:57.287Z,69.24
2017-05-09T04:00:37.944Z,69.15
2017-05-09T04:01:18.572Z,68.86
2017-05-09T04:01:59.195Z,69.15
2017-05-09T04:02:39.798Z,69.15
2017-05-09T04:03:20.397Z,69.24
2017-05-09T04:04:01.023Z,69.24
2017-05-09T04:04:41.623Z,69.24
2017-05-09T04:05:22.226Z,68.96
2017-05-09T04:06:02.843Z,69.24
2017-05-09T04:06:43.444Z,69.34
2017-05-09T04:07:24.041Z,69.24
2017-05-09T04:08:04.654Z,68.96
2017-05-09T04:08:45.240Z,69.24
2017-05-09T04:09:25.865Z,69.24
2017-05-09T04:10:06.480Z,69.24
2017-05-09T04:10:47.079Z,69.24
2017-05-09T04:11:27.667Z,69.05
2017-05-09T04:12:08.304Z,69.24
2017-05-09T04:12:48.898Z,69.71
2017-05-09T04:13:29.505Z,69.34
2017-05-09T04:14:10.128Z,69.34
2017-05-09T04:14:50.860Z,69.24
2017-05-09T04:15:31.508Z,70
2017-05-09T04:16:12.089Z,70
2017-05-09T04:16:52.713Z,70
2017-05-09T04:17:33.556Z,70.19
2017-05-09T04:18:14.222Z,69.43
2017-05-09T04:18:54.837Z,69.43
2017-05-09T04:19:35.470Z,69.24
2017-05-09T04:20:16.082Z,69.15
2017-05-09T04:20:56.692Z,69.71
2017-05-09T04:21:37.276Z,68.96
2017-05-09T04:22:17.927Z,69.24
2017-05-09T04:22:58.523Z,69.24
2017-05-09T04:23:39.139Z,69.24
2017-05-09T04:24:19.770Z,68.86
2017-05-09T04:25:00.413Z,68.86
2017-05-09T04:25:41.004Z,68.96
2017-05-09T04:26:21.618Z,69.05
2017-05-09T04:27:02.208Z,69.15
2017-05-09T04:27:42.794Z,69.24
2017-05-09T04:28:23.357Z,69.43
2017-05-09T04:29:03.950Z,69.24
2017-05-09T04:29:44.519Z,69.34
2017-05-09T04:30:25.128Z,69.62
2017-05-09T04:31:05.695Z,69.71
2017-05-09T04:31:46.274Z,69.53
2017-05-09T04:32:26.859Z,69.43
2017-05-09T04:33:07.458Z,69.53
2017-05-09T04:33:48.046Z,69.53
2017-05-09T04:34:28.661Z,69.53
2017-05-09T04:35:09.228Z,69.62
2017-05-09T04:35:49.794Z,69.53
2017-05-09T04:36:30.370Z,69.53
2017-05-09T04:37:10.994Z,69.53
2017-05-09T04:37:51.586Z,69.53
2017-05-09T04:38:32.205Z,69.53
2017-05-09T04:39:12.777Z,69.71
2017-05-09T04:39:53.362Z,69.62
2017-05-09T04:40:34.008Z,69.24
2017-05-09T04:41:14.647Z,68.86
2017-05-09T04:41:55.226Z,69.43
2017-05-09T04:42:35.868Z,69.05
2017-05-09T04:43:16.467Z,69.62
2017-05-09T04:43:57.115Z,69.71
2017-05-09T04:44:37.703Z,69.71
2017-05-09T04:45:18.310Z,69.62
2017-05-09T04:45:58.910Z,69.34
2017-05-09T04:46:39.520Z,68.96
2017-05-09T04:47:20.130Z,69.05
2017-05-09T04:48:00.759Z,69.34
2017-05-09T04:48:41.410Z,68.96
2017-05-09T04:49:22.017Z,68.96
2017-05-09T04:50:02.602Z,69.24
2017-05-09T04:50:43.271Z,68.96
2017-05-09T04:51:23.884Z,68.58
2017-05-09T04:52:04.497Z,68.86
2017-05-09T04:52:45.111Z,68.58
2017-05-09T04:53:25.738Z,68.33
2017-05-09T04:54:06.360Z,68.33
2017-05-09T04:54:46.986Z,68.67
2017-05-09T04:55:27.568Z,68.71
2017-05-09T04:56:08.189Z,68.61
2017-05-09T04:56:48.807Z,68.8
2017-05-09T04:57:29.423Z,68.33
2017-05-09T04:58:10.029Z,68.23
2017-05-09T04:58:50.675Z,68.39
2017-05-09T04:59:31.354Z,68.33
2017-05-09T05:00:11.962Z,68.42
2017-05-09T05:00:52.556Z,68.13
2017-05-09T05:01:33.144Z,68.33
2017-05-09T05:02:13.753Z,68.42
2017-05-09T05:02:54.394Z,68.61
2017-05-09T05:03:35.036Z,69.46
2017-05-09T05:04:15.663Z,69.94
2017-05-09T05:04:56.305Z,70.42
2017-05-09T05:05:36.909Z,70.89
2017-05-09T05:06:17.508Z,71.94
2017-05-09T05:06:58.076Z,70.32
2017-05-09T05:07:38.663Z,69.09
2017-05-09T05:08:19.256Z,68.52
2017-05-09T05:08:59.858Z,68.23
2017-05-09T05:09:40.459Z,67.66
2017-05-09T05:10:21.053Z,67.38
2017-05-09T05:11:01.659Z,67.57
2017-05-09T05:11:42.245Z,67.57
2017-05-09T05:12:22.815Z,67.28
2017-05-09T05:13:03.422Z,67
2017-05-09T05:13:44.004Z,67.09
2017-05-09T05:14:24.649Z,67.38
2017-05-09T05:15:05.248Z,66.9
2017-05-09T05:15:45.857Z,66.9
2017-05-09T05:16:26.454Z,67
2017-05-09T05:17:07.042Z,66.9
2017-05-09T05:17:47.619Z,66.9
2017-05-09T05:18:28.209Z,66.9
2017-05-09T05:19:08.834Z,66.8
2017-05-09T05:19:49.419Z,67
2017-05-09T05:20:30.033Z,66.8
2017-05-09T05:21:10.653Z,66.61
2017-05-09T05:21:51.276Z,66.52
2017-05-09T05:22:31.984Z,66.8
2017-05-09T05:23:14.090Z,66.8
2017-05-09T05:23:54.681Z,67.09
2017-05-09T05:24:35.318Z,66.8
2017-05-09T05:25:15.931Z,67
2017-05-09T05:25:56.589Z,67.19
2017-05-09T05:26:37.175Z,66.9
2017-05-09T05:27:17.763Z,67.09
2017-05-09T05:27:58.331Z,67.09
2017-05-09T05:28:39.049Z,67.28
2017-05-09T05:29:19.693Z,67.38
2017-05-09T05:30:00.287Z,67
2017-05-09T05:30:40.894Z,66.9
2017-05-09T05:31:21.486Z,67.09
2017-05-09T05:32:02.117Z,66.8
2017-05-09T05:32:42.722Z,66.61
2017-05-09T05:33:23.333Z,66.24
2017-05-09T05:34:03.933Z,66.24
2017-05-09T05:34:44.547Z,66.05
2017-05-09T05:35:25.141Z,66.24
2017-05-09T05:36:05.772Z,66.24
2017-05-09T05:36:46.369Z,65.95
2017-05-09T05:37:26.992Z,65.95
2017-05-09T05:38:07.608Z,65.67
2017-05-09T05:38:48.210Z,65.76
2017-05-09T05:39:28.801Z,66.05
2017-05-09T05:40:09.395Z,65.95
2017-05-09T05:40:49.998Z,65.95
2017-05-09T05:41:30.612Z,65.67
2017-05-09T05:42:11.238Z,65.57
2017-05-09T05:42:51.864Z,70.61
2017-05-09T05:43:32.522Z,73.46
2017-05-09T05:44:13.151Z,74.16
2017-05-09T05:44:53.779Z,75.96
2017-05-09T05:45:34.374Z,75.68
2017-05-09T05:46:14.979Z,75.11
2017-05-09T05:46:55.579Z,74.2
2017-05-09T05:47:36.168Z,72.77
2017-05-09T05:48:16.812Z,72.2
2017-05-09T05:48:57.436Z,71.72
2017-05-09T05:49:38.034Z,71.09
2017-05-09T05:50:18.667Z,71.38
2017-05-09T05:50:59.309Z,71.09
2017-05-09T05:51:39.945Z,70.05
2017-05-09T05:52:20.563Z,69.42
2017-05-09T05:53:01.173Z,68.27
2017-05-09T05:53:41.796Z,67.13
2017-05-09T05:54:22.418Z,66.94
2017-05-09T05:55:03.070Z,66.02
2017-05-09T05:55:43.685Z,65.07
2017-05-09T05:56:24.299Z,64.59
2017-05-09T05:57:04.965Z,63.35
2017-05-09T05:57:45.591Z,61.73
2017-05-09T05:58:26.175Z,61.29
2017-05-09T05:59:06.766Z,61.19
2017-05-09T05:59:47.427Z,58.04
2017-05-09T06:00:28.053Z,56.9
2017-05-09T06:01:08.676Z,55.83
2017-05-09T06:01:49.307Z,55.26
2017-05-09T06:02:29.913Z,54.3
2017-05-09T06:03:10.584Z,54.39
2017-05-09T06:03:51.206Z,54.56
2017-05-09T06:04:31.829Z,55.22
2017-05-09T06:05:12.435Z,55.13
2017-05-09T06:05:53.042Z,54.85
2017-05-09T06:06:33.631Z,55.01
2017-05-09T06:07:14.242Z,54.91
2017-05-09T06:07:54.915Z,55.01
2017-05-09T06:08:35.550Z,54.72
2017-05-09T06:09:16.209Z,54.82
2017-05-09T06:09:56.806Z,54.91
2017-05-09T06:10:37.412Z,55.49
2017-05-09T06:11:18.022Z,55.68
2017-05-09T06:11:58.674Z,55.83
2017-05-09T06:12:39.291Z,56.51
2017-05-09T06:13:19.936Z,56.88
2017-05-09T06:14:00.563Z,57.36
2017-05-09T06:14:41.135Z,57.26
2017-05-09T06:15:21.715Z,57.26
2017-05-09T06:16:02.334Z,57.65
2017-05-09T06:16:42.916Z,57.36
2017-05-09T06:17:23.555Z,58.03
2017-05-09T06:18:04.136Z,57.65
2017-05-09T06:18:44.708Z,57.65
2017-05-09T06:19:25.319Z,57.45
2017-05-09T06:20:05.950Z,58.03
2017-05-09T06:20:46.536Z,57.65
2017-05-09T06:21:27.123Z,57.93
2017-05-09T06:22:07.824Z,57.84
2017-05-09T06:22:48.495Z,58.12
2017-05-09T06:23:29.090Z,58.03
2017-05-09T06:24:09.721Z,58.31
2017-05-09T06:24:50.332Z,58.4
2017-05-09T06:25:30.935Z,58.59
2017-05-09T06:26:11.562Z,58.59
2017-05-09T06:26:52.167Z,58.31
2017-05-09T06:27:32.782Z,57.84
2017-05-09T06:28:13.427Z,58.03
2017-05-09T06:28:54.056Z,57.65
2017-05-09T06:29:34.695Z,56.88
2017-05-09T06:30:15.546Z,56.98
2017-05-09T06:30:56.202Z,57.36
2017-05-09T06:31:36.802Z,56.88
2017-05-09T06:32:17.381Z,56.6
2017-05-09T06:32:58.006Z,57.17
2017-05-09T06:33:38.609Z,56.98
2017-05-09T06:34:19.238Z,57.55
2017-05-09T06:34:59.867Z,57.55
2017-05-09T06:35:40.494Z,57.65
2017-05-09T06:36:21.104Z,58.03
2017-05-09T06:37:01.750Z,58.22
2017-05-09T06:37:42.342Z,57.74
2017-05-09T06:38:23.004Z,57.84
2017-05-09T06:39:03.593Z,57.74
2017-05-09T06:39:44.271Z,57.45
2017-05-09T06:40:24.859Z,56.98
2017-05-09T06:41:05.461Z,56.79
2017-05-09T06:41:46.051Z,56.79
2017-05-09T06:42:26.666Z,56.79
2017-05-09T06:43:07.229Z,56.88
2017-05-09T06:43:47.843Z,56.79
2017-05-09T06:44:28.496Z,56.79
2017-05-09T06:45:09.127Z,56.98
2017-05-09T06:45:49.735Z,56.63
2017-05-09T06:46:30.351Z,56.15
2017-05-09T06:47:11.014Z,55.96
2017-05-09T06:47:51.627Z,55.77
2017-05-09T06:48:32.226Z,55.2
2017-05-09T06:49:13.120Z,55.87
2017-05-09T06:49:53.792Z,55.58
2017-05-09T06:50:34.658Z,55.49
2017-05-09T06:51:15.366Z,56.15
2017-05-09T06:51:56.960Z,56.63
2017-05-09T06:52:37.568Z,56.05
2017-05-09T06:53:18.178Z,55.58
2017-05-09T06:53:58.809Z,54.82
2017-05-09T06:54:39.404Z,54.72
2017-05-09T06:55:20.022Z,53.87
2017-05-09T06:56:00.750Z,53.77
2017-05-09T06:56:41.999Z,53.3
2017-05-09T06:57:22.623Z,53.01
2017-05-09T06:58:03.248Z,53.01
2017-05-09T06:58:43.828Z,52.72
2017-05-09T06:59:24.443Z,52.53
2017-05-09T07:00:05.099Z,52.25
2017-05-09T07:00:45.753Z,52.82
2017-05-09T07:01:26.351Z,53.77
2017-05-09T07:02:07.157Z,59.39
2017-05-09T07:02:47.767Z,62.91
2017-05-09T07:03:28.336Z,64.43
2017-05-09T07:04:08.951Z,64.94
2017-05-09T07:04:49.519Z,61.7
2017-05-09T07:05:30.125Z,57.6
2017-05-09T07:06:10.706Z,54.94
2017-05-09T07:06:51.306Z,53.54
2017-05-09T07:07:31.886Z,52.4
2017-05-09T07:08:12.519Z,52.4
2017-05-09T07:08:53.217Z,51.92
2017-05-09T07:09:33.867Z,51.82
2017-05-09T07:10:14.482Z,51.64
2017-05-09T07:10:55.101Z,51.82
2017-05-09T07:11:35.857Z,52.11
2017-05-09T07:12:16.460Z,52.11
2017-05-09T07:12:57.077Z,51.54
2017-05-09T07:13:37.703Z,51.16
2017-05-09T07:14:18.303Z,50.97
2017-05-09T07:14:58.899Z,50.18
2017-05-09T07:15:39.536Z,50.09
2017-05-09T07:16:20.140Z,49.9
2017-05-09T07:17:00.761Z,50.09
2017-05-09T07:17:41.381Z,50.66
2017-05-09T07:18:22.016Z,51.23
2017-05-09T07:19:02.758Z,51.8
2017-05-09T07:19:43.443Z,52.28
2017-05-09T07:20:24.066Z,52.18
2017-05-09T07:21:04.683Z,52.66
2017-05-09T07:21:45.284Z,52.84
2017-05-09T07:22:25.965Z,51.99
2017-05-09T07:23:06.611Z,52.09
2017-05-09T07:23:47.248Z,51.8
2017-05-09T07:24:27.857Z,51.42
2017-05-09T07:25:08.576Z,52.09
2017-05-09T07:25:49.282Z,51.99
2017-05-09T07:26:29.919Z,51.89
2017-05-09T07:27:10.514Z,51.04
2017-05-09T07:27:51.130Z,50.94
2017-05-09T07:28:31.765Z,51.51
2017-05-09T07:29:12.387Z,51.61
2017-05-09T07:29:52.985Z,51.99
2017-05-09T07:30:33.620Z,51.42
2017-05-09T07:31:14.286Z,51.99
2017-05-09T07:31:54.892Z,51.89
2017-05-09T07:32:35.752Z,50.85
2017-05-09T07:33:16.345Z,49.71
2017-05-09T07:33:57.464Z,48.66
2017-05-09T07:34:39.221Z,48.56
2017-05-09T07:35:20.119Z,48.66
2017-05-09T07:36:00.766Z,47.99
2017-05-09T07:36:42.321Z,47.92
2017-05-09T07:37:23.082Z,47.92
2017-05-09T07:38:03.686Z,47.06
2017-05-09T07:38:44.274Z,46.49
2017-05-09T07:39:24.882Z,47.16
2017-05-09T07:40:05.504Z,47.75
2017-05-09T07:40:46.088Z,47.94
2017-05-09T07:41:27.623Z,47.08
2017-05-09T07:42:08.212Z,44.99
2017-05-09T07:42:48.842Z,43.56
2017-05-09T07:43:29.427Z,42.99
2017-05-09T07:44:10.016Z,44.23
2017-05-09T07:44:50.632Z,44.7
2017-05-09T07:45:31.213Z,45.01
2017-05-09T07:46:11.793Z,44.06
2017-05-09T07:46:52.372Z,44.8
2017-05-09T07:47:32.961Z,45.39
2017-05-09T07:48:13.536Z,46.13
2017-05-09T07:48:54.135Z,45.94
2017-05-09T07:49:34.773Z,46.42
2017-05-09T07:50:15.380Z,47.11
2017-05-09T07:50:55.996Z,47.02
2017-05-09T07:51:36.556Z,46.73
2017-05-09T07:52:17.134Z,47.3
2017-05-09T07:52:57.800Z,47.02
2017-05-09T07:53:38.424Z,47.2
2017-05-09T07:54:19.003Z,46.82
2017-05-09T07:54:59.563Z,46.73
2017-05-09T07:55:40.202Z,46.92
2017-05-09T07:56:20.816Z,47.02
2017-05-09T07:57:01.418Z,47.3
2017-05-09T07:57:42.012Z,45.99
2017-05-09T07:58:22.681Z,45.89
2017-05-09T07:59:03.273Z,46.56
2017-05-09T07:59:43.904Z,47.13
2017-05-09T08:00:24.521Z,46.84
2017-05-09T08:01:05.116Z,46.47
2017-05-09T08:01:45.735Z,46.56
2017-05-09T08:02:26.316Z,46.27
2017-05-09T08:03:06.911Z,46.08
2017-05-09T08:03:47.502Z,45.7
2017-05-09T08:04:28.083Z,45.99
2017-05-09T08:05:08.752Z,46.56
2017-05-09T08:05:49.395Z,47.23
2017-05-09T08:06:29.984Z,47.23
2017-05-09T08:07:10.590Z,47.32
2017-05-09T08:07:51.182Z,46.75
2017-05-09T08:08:31.818Z,44.84
2017-05-09T08:09:12.446Z,43.7
2017-05-09T08:09:53.040Z,43.77
2017-05-09T08:10:33.624Z,44.34
2017-05-09T08:11:14.251Z,44.63
2017-05-09T08:11:54.855Z,44.73
2017-05-09T08:12:35.466Z,45.58
2017-05-09T08:13:16.083Z,46.25
2017-05-09T08:13:56.700Z,46.15
2017-05-09T08:14:37.350Z,46.54
2017-05-09T08:15:17.920Z,46.61
2017-05-09T08:15:58.556Z,47.28
2017-05-09T08:16:39.201Z,46.89
2017-05-09T08:17:19.796Z,47.47
2017-05-09T08:18:00.393Z,47.37
2017-05-09T08:18:40.988Z,47.75
2017-05-09T08:19:21.635Z,47.75
2017-05-09T08:20:02.222Z,47.28
2017-05-09T08:20:42.836Z,47.85
2017-05-09T08:21:23.446Z,48.71
2017-05-09T08:22:04.036Z,48.71
2017-05-09T08:22:44.635Z,49.28
2017-05-09T08:23:25.241Z,49.47
2017-05-09T08:24:05.892Z,49.95
2017-05-09T08:24:46.533Z,49.37
2017-05-09T08:25:27.178Z,48.99
2017-05-09T08:26:07.799Z,48.71
2017-05-09T08:26:48.432Z,47.66
2017-05-09T08:27:29.070Z,48.13
2017-05-09T08:28:09.732Z,48.71
2017-05-09T08:28:50.363Z,50.04
2017-05-09T08:29:30.992Z,49.85
2017-05-09T08:30:11.636Z,51.18
2017-05-09T08:30:52.260Z,51.18
2017-05-09T08:31:32.843Z,50.99
2017-05-09T08:32:13.449Z,50.42
2017-05-09T08:32:54.067Z,50.23
2017-05-09T08:33:34.752Z,49.87
2017-05-09T08:34:15.338Z,49.68
2017-05-09T08:34:55.960Z,49.4
2017-05-09T08:35:36.558Z,49.21
2017-05-09T08:36:17.168Z,49.3
2017-05-09T08:36:57.762Z,49.59
2017-05-09T08:37:38.350Z,49.3
2017-05-09T08:38:18.966Z,48.92
2017-05-09T08:38:59.567Z,49.49
2017-05-09T08:39:40.256Z,48.92
2017-05-09T08:40:20.902Z,49.21
2017-05-09T08:41:01.506Z,47.99
2017-05-09T08:41:42.133Z,47.99
2017-05-09T08:42:22.734Z,48.08
2017-05-09T08:43:03.334Z,47.8
2017-05-09T08:43:43.921Z,46.94
2017-05-09T08:44:24.506Z,44.65
2017-05-09T08:45:05.103Z,45.13
2017-05-09T08:45:45.723Z,45.51
2017-05-09T08:46:26.324Z,45.51